Time;durP1;ratioP1;P1;durP2;ratioP2;P2;SDS_P1;SDS_P2;PMS_P1;PMS_P2;Temp;Humidity;BMP_temperature;BMP_pressure;BME280_temperature;BME280_humidity;BME280_pressure;Samples;Min_cycle;Max_cycle;Signal;HPM_P1;HPM_P2
2023/06/13 00:02:10;;;;;;;9.90;2.20;;;;;;;11.63;62.69;100384.48;110156;1268;22228;-58
2023/06/13 00:04:43;;;;;;;8.80;2.00;;;;;;;11.61;62.67;100385.02;110138;1273;22621;-58
2023/06/13 00:07:14;;;;;;;6.30;2.20;;;;;;;11.62;62.94;100393.87;110157;1271;22303;-58
2023/06/13 00:09:45;;;;;;;11.00;3.00;;;;;;;11.71;62.90;100385.71;110167;1274;22342;-57
2023/06/13 00:12:19;;;;;;;10.80;2.20;;;;;;;11.75;62.94;100387.80;110166;1274;23452;-57
2023/06/13 00:14:51;;;;;;;13.20;3.70;;;;;;;11.76;62.93;100381.92;110165;1271;22177;-58
2023/06/13 00:17:25;;;;;;;16.30;5.30;;;;;;;11.72;63.28;100371.63;110172;1271;22338;-59
2023/06/13 00:19:56;;;;;;;13.40;4.00;;;;;;;11.66;63.49;100366.74;110153;1273;22176;-59
2023/06/13 00:22:28;;;;;;;18.00;3.60;;;;;;;11.59;63.62;100367.93;110150;1262;22633;-58
2023/06/13 00:24:59;;;;;;;17.70;4.00;;;;;;;11.51;63.82;100362.71;110163;1272;22179;-59
2023/06/13 00:27:30;;;;;;;14.30;3.60;;;;;;;11.45;64.00;100361.20;110170;1263;22186;-59
2023/06/13 00:30:02;;;;;;;11.60;2.90;;;;;;;11.38;64.18;100350.91;110163;1273;22327;-59
2023/06/13 00:32:33;;;;;;;10.90;2.60;;;;;;;11.28;63.98;100342.95;110176;1268;22396;-59
2023/06/13 00:35:08;;;;;;;11.10;2.60;;;;;;;11.20;64.05;100336.16;110182;1273;23332;-59
2023/06/13 00:37:40;;;;;;;14.60;3.10;;;;;;;11.17;64.25;100332.29;110167;1274;22443;-59
2023/06/13 00:40:13;;;;;;;8.10;2.20;;;;;;;11.07;64.41;100326.34;110144;1272;22973;-59
2023/06/13 00:42:44;;;;;;;7.70;1.90;;;;;;;10.99;64.50;100322.25;110151;1278;22228;-59
2023/06/13 00:45:27;;;;;;;10.20;2.40;;;;;;;10.93;64.55;100332.86;110174;1271;22159;-59
2023/06/13 00:48:03;;;;;;;11.00;3.10;;;;;;;10.94;64.64;100342.77;110152;1266;22315;-57
2023/06/13 00:50:40;;;;;;;10.10;2.90;;;;;;;10.98;65.10;100352.11;110175;1273;22360;-59
2023/06/13 00:53:18;;;;;;;9.90;2.50;;;;;;;10.98;65.19;100344.48;110137;1275;22256;-58
2023/06/13 00:55:50;;;;;;;11.00;2.70;;;;;;;10.96;65.52;100337.61;110149;1264;22231;-59
2023/06/13 00:58:22;;;;;;;10.20;2.90;;;;;;;10.93;65.71;100331.02;110134;1272;22343;-58
2023/06/13 01:00:54;;;;;;;11.50;3.00;;;;;;;10.89;65.78;100329.89;110140;1268;22253;-58
2023/06/13 01:03:25;;;;;;;12.20;3.30;;;;;;;10.83;66.07;100327.95;110182;1272;22185;-59
2023/06/13 01:05:57;;;;;;;10.90;3.00;;;;;;;10.79;66.20;100332.74;110137;1272;22172;-60
2023/06/13 01:08:30;;;;;;;12.60;3.40;;;;;;;10.76;66.34;100332.84;110180;1268;23002;-58
2023/06/13 01:11:09;;;;;;;10.30;2.60;;;;;;;10.74;66.47;100331.58;110159;1274;22211;-59
2023/06/13 01:13:49;;;;;;;12.50;3.10;;;;;;;10.70;66.60;100335.11;110172;1271;22198;-56
2023/06/13 01:16:25;;;;;;;9.30;2.90;;;;;;;10.63;66.64;100340.55;110167;1271;22169;-58
2023/06/13 01:18:59;;;;;;;12.10;3.20;;;;;;;10.60;66.77;100341.41;110166;1273;22180;-55
2023/06/13 01:21:31;;;;;;;8.50;2.70;;;;;;;10.62;66.82;100348.96;110165;1272;22979;-57
2023/06/13 01:24:07;;;;;;;12.40;3.50;;;;;;;10.67;66.87;100349.06;110164;1272;22386;-58
2023/06/13 01:26:56;;;;;;;9.40;2.60;;;;;;;10.69;66.96;100339.09;110177;1271;22384;-58
2023/06/13 01:29:29;;;;;;;11.60;3.40;;;;;;;10.64;67.10;100330.31;110185;1274;22849;-59
2023/06/13 01:32:00;;;;;;;10.20;2.90;;;;;;;10.58;67.17;100331.57;110137;1272;22417;-57
2023/06/13 01:34:32;;;;;;;8.60;2.60;;;;;;;10.53;67.33;100337.31;110178;1272;22333;-58
2023/06/13 01:37:03;;;;;;;10.00;2.90;;;;;;;10.49;67.57;100336.73;110158;1276;23016;-59
2023/06/13 01:39:36;;;;;;;9.90;3.10;;;;;;;10.44;67.60;100329.72;110159;1272;22188;-58
2023/06/13 01:42:08;;;;;;;10.80;2.90;;;;;;;10.40;67.61;100334.80;110165;1275;22153;-58
2023/06/13 01:44:40;;;;;;;9.70;2.80;;;;;;;10.36;67.72;100339.63;110154;1275;22320;-56
2023/06/13 01:47:20;;;;;;;8.40;3.00;;;;;;;10.34;67.73;100338.79;110170;1268;22191;-58
2023/06/13 01:49:59;;;;;;;10.90;3.40;;;;;;;10.33;67.80;100343.18;110191;1274;22217;-58
2023/06/13 01:52:38;;;;;;;10.90;3.40;;;;;;;10.34;67.81;100349.14;110183;1268;22416;-58
2023/06/13 01:55:14;;;;;;;9.60;2.70;;;;;;;10.35;67.85;100347.58;110160;1272;22169;-58
2023/06/13 01:57:52;;;;;;;15.70;5.50;;;;;;;10.37;67.79;100351.14;110192;1272;22175;-57
2023/06/13 02:00:23;;;;;;;15.70;5.00;;;;;;;10.39;67.89;100345.85;110151;1276;22250;-59
2023/06/13 02:02:57;;;;;;;10.80;3.70;;;;;;;10.40;67.96;100341.75;110146;1268;23487;-58
2023/06/13 02:05:29;;;;;;;15.80;3.10;;;;;;;10.42;67.85;100344.73;110147;1266;22194;-58
2023/06/13 02:08:01;;;;;;;11.40;3.20;;;;;;;10.44;68.11;100347.73;110143;1266;22265;-58
2023/06/13 02:10:32;;;;;;;10.00;3.40;;;;;;;10.48;68.13;100350.59;110162;1264;23592;-58
2023/06/13 02:13:03;;;;;;;8.40;2.60;;;;;;;10.48;68.27;100346.65;110182;1278;23091;-58
2023/06/13 02:15:34;;;;;;;10.30;2.90;;;;;;;10.49;68.30;100339.81;110167;1268;22973;-58
2023/06/13 02:18:06;;;;;;;10.40;2.90;;;;;;;10.50;68.34;100335.97;110209;1270;22172;-59
2023/06/13 02:20:37;;;;;;;14.80;3.20;;;;;;;10.49;68.38;100334.02;110142;1274;23420;-59
2023/06/13 02:23:09;;;;;;;9.70;2.90;;;;;;;10.50;68.34;100335.23;110165;1273;22597;-59
2023/06/13 02:25:41;;;;;;;9.80;3.00;;;;;;;10.52;68.42;100330.59;110161;1269;23081;-59
2023/06/13 02:28:12;;;;;;;16.00;3.40;;;;;;;10.50;68.44;100331.06;110192;1264;22336;-58
2023/06/13 02:30:44;;;;;;;18.20;3.10;;;;;;;10.49;68.39;100331.60;110199;1269;22413;-59
2023/06/13 02:33:15;;;;;;;14.00;3.00;;;;;;;10.50;68.37;100333.73;110173;1268;22237;-59
2023/06/13 02:35:46;;;;;;;12.90;2.90;;;;;;;10.51;68.55;100334.48;110164;1273;22411;-58
2023/06/13 02:38:18;;;;;;;11.20;3.20;;;;;;;10.51;68.62;100330.57;110136;1271;22374;-58
2023/06/13 02:40:49;;;;;;;16.30;3.10;;;;;;;10.52;68.68;100329.73;110195;1273;22092;-59
2023/06/13 02:43:20;;;;;;;11.80;3.70;;;;;;;10.53;68.65;100328.73;110192;1272;22503;-59
2023/06/13 02:45:52;;;;;;;11.30;3.00;;;;;;;10.54;68.88;100325.86;110179;1273;23068;-59
2023/06/13 02:48:25;;;;;;;13.20;4.20;;;;;;;10.53;68.87;100325.89;110178;1267;22347;-59
2023/06/13 02:50:57;;;;;;;7.60;2.40;;;;;;;10.53;68.99;100326.45;110058;1270;22239;-59
2023/06/13 02:53:28;;;;;;;13.70;3.30;;;;;;;10.53;69.05;100328.52;110162;1271;22158;-59
2023/06/13 02:55:59;;;;;;;13.40;3.30;;;;;;;10.53;69.08;100329.30;110156;1264;22230;-59
2023/06/13 02:58:29;;;;;;;10.80;3.20;;;;;;;10.54;69.34;100329.70;110206;1273;22445;-59
2023/06/13 03:01:00;;;;;;;11.80;3.40;;;;;;;10.54;69.26;100322.41;110172;1274;23283;-57
2023/06/13 03:03:34;;;;;;;11.30;3.50;;;;;;;10.55;69.40;100319.89;110192;1273;22313;-58
2023/06/13 03:06:05;;;;;;;17.30;4.50;;;;;;;10.57;69.53;100314.80;110186;1273;22170;-59
2023/06/13 03:08:36;;;;;;;12.70;3.30;;;;;;;10.59;69.58;100316.67;110145;1264;22428;-58
2023/06/13 03:11:07;;;;;;;13.80;3.30;;;;;;;10.60;69.73;100315.16;110164;1274;22392;-60
2023/06/13 03:13:38;;;;;;;10.70;3.30;;;;;;;10.63;69.78;100317.35;110160;1267;22179;-59
2023/06/13 03:16:09;;;;;;;14.30;3.80;;;;;;;10.66;69.86;100313.40;110173;1274;22176;-58
2023/06/13 03:18:39;;;;;;;10.70;3.00;;;;;;;10.69;69.96;100317.87;110184;1272;23084;-58
2023/06/13 03:21:11;;;;;;;13.10;3.30;;;;;;;10.71;70.13;100316.23;110164;1274;22189;-59
2023/06/13 03:23:41;;;;;;;12.90;3.80;;;;;;;10.71;70.21;100310.15;110185;1267;22196;-59
2023/06/13 03:26:13;;;;;;;10.90;2.80;;;;;;;10.72;70.19;100310.83;110188;1271;22227;-58
2023/06/13 03:28:44;;;;;;;15.20;3.30;;;;;;;10.74;70.37;100316.95;110205;1264;22890;-59
2023/06/13 03:31:15;;;;;;;12.40;3.10;;;;;;;10.78;70.50;100318.35;110203;1264;22402;-59
2023/06/13 03:33:46;;;;;;;16.80;3.90;;;;;;;10.79;70.64;100327.27;110232;1274;22417;-59
2023/06/13 03:36:17;;;;;;;13.60;4.10;;;;;;;10.83;70.66;100323.83;110202;1267;22335;-59
2023/06/13 03:38:48;;;;;;;12.20;2.80;;;;;;;10.84;70.87;100323.65;110173;1273;22403;-60
2023/06/13 03:41:19;;;;;;;14.10;3.20;;;;;;;10.87;70.91;100324.41;110194;1273;22175;-58
2023/06/13 03:43:51;;;;;;;13.20;3.10;;;;;;;10.89;70.96;100322.59;110220;1264;22351;-59
2023/06/13 03:46:21;;;;;;;13.50;3.00;;;;;;;10.94;71.00;100324.91;110150;1272;22302;-59
2023/06/13 03:48:52;;;;;;;13.30;4.30;;;;;;;10.97;71.03;100327.50;110199;1278;23149;-59
2023/06/13 03:51:23;;;;;;;10.90;3.40;;;;;;;11.02;71.20;100322.38;110182;1264;22262;-59
2023/06/13 03:53:54;;;;;;;13.40;3.60;;;;;;;11.06;71.21;100319.08;110189;1272;22731;-58
2023/06/13 03:56:26;;;;;;;12.60;3.80;;;;;;;11.09;71.31;100321.54;110184;1273;22212;-58
2023/06/13 03:58:57;;;;;;;13.30;3.40;;;;;;;11.13;71.28;100327.36;110206;1264;22208;-59
2023/06/13 04:01:28;;;;;;;13.90;2.90;;;;;;;11.17;71.30;100327.42;110190;1272;22222;-59
2023/06/13 04:03:59;;;;;;;15.10;3.60;;;;;;;11.21;71.32;100331.52;110194;1278;22208;-57
2023/06/13 04:06:30;;;;;;;12.30;3.60;;;;;;;11.25;71.33;100334.58;110227;1273;22371;-58
2023/06/13 04:09:04;;;;;;;16.20;4.10;;;;;;;11.29;71.34;100327.85;110162;1273;23487;-57
2023/06/13 04:11:35;;;;;;;12.80;3.60;;;;;;;11.34;71.62;100324.21;110164;1272;22302;-58
2023/06/13 04:14:06;;;;;;;13.10;3.60;;;;;;;11.37;71.59;100321.52;110199;1272;22331;-59
2023/06/13 04:16:37;;;;;;;14.40;3.40;;;;;;;11.42;71.62;100323.02;110183;1272;22222;-58
2023/06/13 04:19:08;;;;;;;12.80;3.40;;;;;;;11.47;71.72;100318.98;110169;1264;22422;-59
2023/06/13 04:21:38;;;;;;;15.40;4.30;;;;;;;11.53;71.66;100322.14;110204;1273;22216;-57
2023/06/13 04:24:10;;;;;;;15.60;3.40;;;;;;;11.58;71.77;100322.02;110191;1264;22306;-59
2023/06/13 04:26:45;;;;;;;13.60;3.60;;;;;;;11.63;71.82;100317.44;110188;1272;22496;-58
2023/06/13 04:29:17;;;;;;;13.90;4.60;;;;;;;11.69;72.05;100313.78;110212;1267;22407;-58
2023/06/13 04:31:48;;;;;;;16.20;4.20;;;;;;;11.72;71.96;100315.76;110195;1273;22301;-57
2023/06/13 04:34:20;;;;;;;14.80;3.90;;;;;;;11.77;72.12;100310.91;110168;1264;22467;-56
2023/06/13 04:36:55;;;;;;;12.90;3.40;;;;;;;11.81;72.20;100310.36;110225;1263;22928;-58
2023/06/13 04:39:28;;;;;;;12.70;3.70;;;;;;;11.87;72.17;100316.29;110059;1270;22356;-59
2023/06/13 04:42:01;;;;;;;13.00;3.80;;;;;;;11.93;72.17;100327.88;110180;1267;22170;-58
2023/06/13 04:44:33;;;;;;;14.90;3.60;;;;;;;12.00;72.33;100334.09;110207;1271;22310;-58
2023/06/13 04:47:04;;;;;;;10.20;2.90;;;;;;;12.07;72.06;100339.84;110155;1271;22379;-60
2023/06/13 04:49:35;;;;;;;16.20;3.80;;;;;;;12.15;72.13;100338.13;110178;1263;22206;-60
2023/06/13 04:52:08;;;;;;;13.60;3.60;;;;;;;12.25;72.28;100332.66;110207;1273;22368;-60
2023/06/13 04:54:39;;;;;;;13.00;3.60;;;;;;;12.36;72.45;100328.38;110206;1272;22917;-60
2023/06/13 04:57:10;;;;;;;13.70;3.50;;;;;;;12.48;72.41;100326.34;110244;1267;23030;-61
2023/06/13 04:59:41;;;;;;;14.30;3.40;;;;;;;12.61;72.09;100329.55;110201;1267;23057;-59
2023/06/13 05:02:12;;;;;;;15.60;3.80;;;;;;;12.75;71.86;100328.20;110175;1265;22327;-59
2023/06/13 05:04:44;;;;;;;13.80;3.20;;;;;;;12.88;71.54;100323.00;110223;1263;22394;-57
2023/06/13 05:07:16;;;;;;;16.00;3.70;;;;;;;13.01;71.29;100321.78;110206;1263;22335;-58
2023/06/13 05:09:48;;;;;;;11.00;2.70;;;;;;;13.16;71.27;100318.52;110227;1278;22189;-57
2023/06/13 05:12:19;;;;;;;9.80;2.40;;;;;;;13.29;70.82;100315.84;110222;1272;22252;-57
2023/06/13 05:14:50;;;;;;;10.00;2.10;;;;;;;13.40;70.19;100314.20;110157;1267;22265;-57
2023/06/13 05:17:21;;;;;;;10.80;2.50;;;;;;;13.51;69.90;100312.67;110128;1271;23212;-57
2023/06/13 05:19:53;;;;;;;10.50;2.10;;;;;;;13.62;70.01;100316.85;110132;1271;22230;-58
2023/06/13 05:22:24;;;;;;;12.70;2.20;;;;;;;13.75;69.76;100319.35;110172;1263;23107;-57
2023/06/13 05:24:59;;;;;;;8.20;2.30;;;;;;;13.89;69.51;100321.84;110184;1270;23072;-57
2023/06/13 05:27:30;;;;;;;12.10;2.30;;;;;;;14.02;69.43;100323.20;110053;1271;22532;-56
2023/06/13 05:30:01;;;;;;;8.90;1.90;;;;;;;14.15;69.38;100328.17;110139;1267;22219;-58
2023/06/13 05:32:32;;;;;;;11.20;2.10;;;;;;;14.29;68.74;100326.64;110150;1270;22169;-58
2023/06/13 05:35:03;;;;;;;10.10;1.80;;;;;;;14.41;68.21;100331.67;110072;1273;22402;-56
2023/06/13 05:37:36;;;;;;;7.20;2.00;;;;;;;14.53;68.00;100326.88;110056;1271;22419;-56
2023/06/13 05:40:09;;;;;;;10.70;2.00;;;;;;;14.67;67.57;100328.09;110180;1264;22152;-57
2023/06/13 05:42:40;;;;;;;10.80;1.90;;;;;;;14.81;67.25;100324.32;110196;1277;22201;-57
2023/06/13 05:45:12;;;;;;;12.90;2.30;;;;;;;14.95;67.16;100320.27;110194;1273;23474;-57
2023/06/13 05:47:43;;;;;;;7.20;2.00;;;;;;;15.08;66.58;100317.23;110187;1273;22848;-58
2023/06/13 05:50:14;;;;;;;7.40;1.70;;;;;;;15.19;66.38;100317.10;110154;1271;22363;-56
2023/06/13 05:52:45;;;;;;;5.90;1.40;;;;;;;15.33;65.98;100310.42;110182;1272;22282;-58
2023/06/13 05:55:16;;;;;;;8.70;1.60;;;;;;;15.44;65.44;100309.77;110149;1263;22392;-57
2023/06/13 05:57:48;;;;;;;8.20;1.70;;;;;;;15.52;64.92;100308.30;110171;1271;22204;-56
2023/06/13 06:00:20;;;;;;;10.20;1.50;;;;;;;15.60;64.34;100306.92;110185;1270;22410;-57
2023/06/13 06:02:52;;;;;;;10.50;1.50;;;;;;;15.64;64.24;100309.89;110124;1271;22339;-56
2023/06/13 06:05:24;;;;;;;6.50;1.40;;;;;;;15.73;64.47;100311.27;110162;1267;22239;-55
2023/06/13 06:07:54;;;;;;;6.50;1.70;;;;;;;15.87;64.45;100311.77;110131;1264;22174;-57
2023/06/13 06:10:25;;;;;;;9.50;1.30;;;;;;;16.00;63.97;100311.02;110154;1272;22425;-57
2023/06/13 06:12:56;;;;;;;12.40;3.50;;;;;;;16.14;63.38;100310.27;110176;1264;22187;-57
2023/06/13 06:15:27;;;;;;;18.20;4.20;;;;;;;16.26;62.99;100310.77;110139;1273;22155;-58
2023/06/13 06:17:58;;;;;;;21.60;5.60;;;;;;;16.33;62.10;100308.27;110176;1271;22947;-57
2023/06/13 06:20:29;;;;;;;7.80;2.00;;;;;;;16.39;61.50;100304.83;110167;1264;22211;-57
2023/06/13 06:23:00;;;;;;;7.20;1.50;;;;;;;16.42;61.57;100303.29;110173;1272;22322;-58
2023/06/13 06:25:31;;;;;;;7.30;1.30;;;;;;;16.47;61.26;100301.10;110191;1271;22338;-58
2023/06/13 06:28:02;;;;;;;8.10;1.50;;;;;;;16.52;61.11;100300.23;110180;1278;22847;-57
2023/06/13 06:30:33;;;;;;;6.80;1.20;;;;;;;16.56;60.75;100293.52;110210;1264;22307;-57
2023/06/13 06:33:04;;;;;;;5.80;1.10;;;;;;;16.60;60.02;100293.30;110196;1275;23142;-57
2023/06/13 06:35:36;;;;;;;9.10;1.10;;;;;;;16.62;59.86;100290.73;110175;1273;22327;-57
2023/06/13 06:38:07;;;;;;;6.10;1.10;;;;;;;16.66;59.56;100287.11;110153;1263;22165;-58
2023/06/13 06:40:38;;;;;;;11.00;2.00;;;;;;;16.68;59.34;100291.10;110167;1264;22157;-57
2023/06/13 06:43:10;;;;;;;14.10;3.70;;;;;;;16.70;58.74;100286.67;106785;1271;5443879;-59
2023/06/13 06:45:41;;;;;;;6.50;1.60;;;;;;;16.75;58.49;100291.69;110204;1271;22443;-58
2023/06/13 06:48:12;;;;;;;10.50;1.70;;;;;;;16.77;58.42;100291.83;110166;1271;22207;-57
2023/06/13 06:50:43;;;;;;;8.60;1.10;;;;;;;16.79;58.24;100289.55;110187;1271;22166;-56
2023/06/13 06:53:14;;;;;;;10.60;1.80;;;;;;;16.84;57.94;100295.79;110161;1271;22349;-58
2023/06/13 06:55:44;;;;;;;8.00;1.40;;;;;;;16.85;57.51;100296.64;110194;1271;22324;-58
2023/06/13 06:58:15;;;;;;;8.70;1.50;;;;;;;16.87;57.54;100298.54;110214;1263;22401;-57
2023/06/13 07:00:47;;;;;;;4.30;1.00;;;;;;;16.89;56.63;100292.27;110212;1274;22275;-57
2023/06/13 07:03:18;;;;;;;6.40;1.20;;;;;;;16.91;56.73;100296.71;110204;1272;22328;-57
2023/06/13 07:05:48;;;;;;;4.50;1.00;;;;;;;16.95;56.38;100295.00;110177;1275;22675;-58
2023/06/13 07:08:19;;;;;;;6.00;1.30;;;;;;;16.97;56.31;100289.61;110201;1273;22159;-58
2023/06/13 07:10:50;;;;;;;5.40;1.10;;;;;;;17.01;56.43;100288.86;110201;1271;23059;-57
2023/06/13 07:13:21;;;;;;;5.20;1.10;;;;;;;17.08;56.20;100287.79;110183;1264;22281;-57
2023/06/13 07:15:52;;;;;;;6.80;1.10;;;;;;;17.14;55.68;100278.48;110146;1278;22195;-57
2023/06/13 07:18:23;;;;;;;4.90;1.10;;;;;;;17.19;55.36;100279.25;110185;1267;22441;-57
2023/06/13 07:20:54;;;;;;;4.90;1.00;;;;;;;17.22;55.16;100281.23;110146;1271;22195;-58
2023/06/13 07:23:25;;;;;;;6.90;1.40;;;;;;;17.27;55.08;100282.21;110194;1271;22209;-56
2023/06/13 07:25:56;;;;;;;6.40;1.00;;;;;;;17.33;55.05;100281.20;110221;1267;23523;-57
2023/06/13 07:28:27;;;;;;;12.30;2.10;;;;;;;17.39;54.85;100278.99;109994;1263;23295;-57
2023/06/13 07:30:58;;;;;;;6.10;1.10;;;;;;;17.44;54.10;100279.16;110004;1280;22176;-57
2023/06/13 07:33:29;;;;;;;5.50;1.10;;;;;;;17.50;53.73;100281.19;109978;1273;22181;-58
2023/06/13 07:36:00;;;;;;;10.10;2.10;;;;;;;17.56;53.27;100281.80;109996;1269;23269;-56
2023/06/13 07:38:31;;;;;;;12.30;2.20;;;;;;;17.62;52.96;100282.63;109994;1273;23423;-57
2023/06/13 07:41:02;;;;;;;3.90;1.00;;;;;;;17.65;52.50;100283.36;109984;1273;22219;-56
2023/06/13 07:43:33;;;;;;;5.50;1.20;;;;;;;17.66;52.01;100284.17;109934;1265;22876;-57
2023/06/13 07:46:04;;;;;;;6.60;1.40;;;;;;;17.66;51.62;100279.96;109992;1267;22185;-56
2023/06/13 07:48:38;;;;;;;6.60;1.30;;;;;;;17.68;51.63;100281.08;109951;1274;22415;-58
2023/06/13 07:51:09;;;;;;;5.20;1.00;;;;;;;17.70;51.36;100278.39;109962;1273;22183;-59
2023/06/13 07:53:41;;;;;;;4.30;0.90;;;;;;;17.75;51.12;100277.79;110002;1273;22349;-60
2023/06/13 07:56:12;;;;;;;3.50;1.00;;;;;;;17.77;51.11;100277.40;109995;1273;22251;-59
2023/06/13 07:58:43;;;;;;;5.80;1.00;;;;;;;17.82;51.17;100276.84;110007;1274;23010;-58
2023/06/13 08:01:15;;;;;;;7.70;0.80;;;;;;;17.90;51.05;100277.17;109987;1273;22259;-60
2023/06/13 08:03:46;;;;;;;3.00;0.70;;;;;;;17.99;50.94;100277.02;109949;1273;22211;-60
2023/06/13 08:06:17;;;;;;;5.20;1.30;;;;;;;18.07;50.71;100276.73;109981;1273;22173;-60
2023/06/13 08:08:48;;;;;;;18.10;4.90;;;;;;;18.13;51.00;100273.38;109957;1269;22328;-58
2023/06/13 08:11:19;;;;;;;14.30;5.00;;;;;;;18.19;50.57;100274.60;109949;1273;22388;-61
2023/06/13 08:13:49;;;;;;;8.90;1.80;;;;;;;18.23;50.19;100276.45;109982;1265;22234;-61
2023/06/13 08:16:21;;;;;;;4.30;1.10;;;;;;;18.25;49.91;100275.20;109970;1273;22359;-59
2023/06/13 08:18:52;;;;;;;7.70;1.00;;;;;;;18.28;49.56;100271.02;109982;1273;22304;-59
2023/06/13 08:21:23;;;;;;;5.90;1.00;;;;;;;18.31;49.82;100265.71;109924;1266;22123;-60
2023/06/13 08:23:54;;;;;;;11.80;1.00;;;;;;;18.37;49.75;100267.80;109952;1274;22635;-60
2023/06/13 08:26:25;;;;;;;6.70;1.10;;;;;;;18.44;49.56;100265.69;109956;1270;22166;-60
2023/06/13 08:28:56;;;;;;;7.80;1.30;;;;;;;18.45;48.65;100269.33;110119;1264;22196;-59
2023/06/13 08:31:27;;;;;;;6.60;1.00;;;;;;;18.44;48.86;100269.13;110174;1262;22166;-58
2023/06/13 08:33:59;;;;;;;4.40;0.90;;;;;;;18.47;48.58;100267.30;110233;1271;22205;-59
2023/06/13 08:36:30;;;;;;;4.50;0.90;;;;;;;18.51;48.52;100270.64;110176;1267;22479;-60
2023/06/13 08:39:01;;;;;;;4.30;1.00;;;;;;;18.53;48.55;100273.27;110197;1274;22154;-61
2023/06/13 08:41:32;;;;;;;7.50;1.20;;;;;;;18.55;48.51;100273.16;110203;1263;22321;-59
2023/06/13 08:44:04;;;;;;;6.90;1.10;;;;;;;18.55;48.46;100275.11;110210;1264;22261;-59
2023/06/13 08:46:36;;;;;;;9.00;1.10;;;;;;;18.52;48.64;100276.90;110201;1271;22237;-60
2023/06/13 08:49:07;;;;;;;10.00;1.40;;;;;;;18.53;48.93;100271.34;110163;1272;23111;-59
2023/06/13 08:51:41;;;;;;;6.10;1.20;;;;;;;18.54;48.62;100275.23;110189;1272;22189;-59
2023/06/13 08:54:14;;;;;;;5.20;1.00;;;;;;;18.55;48.71;100277.52;110202;1265;22180;-60
2023/06/13 08:56:46;;;;;;;19.70;7.30;;;;;;;18.60;48.84;100283.22;110180;1271;23083;-60
2023/06/13 08:59:25;;;;;;;25.50;11.70;;;;;;;18.63;48.69;100285.95;110130;1271;22342;-59
2023/06/13 09:01:58;;;;;;;9.30;1.80;;;;;;;18.65;48.60;100285.02;110041;1268;22300;-61
2023/06/13 09:04:31;;;;;;;8.40;1.20;;;;;;;18.68;48.77;100276.59;110078;1264;22168;-60
2023/06/13 09:07:04;;;;;;;4.80;1.20;;;;;;;18.72;48.76;100278.59;110137;1271;22363;-60
2023/06/13 09:09:38;;;;;;;9.10;1.20;;;;;;;18.79;49.44;100273.23;110194;1270;22321;-60
2023/06/13 09:12:13;;;;;;;5.70;1.10;;;;;;;18.93;49.13;100280.51;110140;1270;22523;-59
2023/06/13 09:14:46;;;;;;;4.50;0.90;;;;;;;19.01;48.41;100275.91;110048;1264;22974;-58
2023/06/13 09:17:19;;;;;;;6.00;1.90;;;;;;;19.06;48.78;100284.43;110177;1268;22190;-60
2023/06/13 09:19:52;;;;;;;4.80;1.10;;;;;;;19.17;48.14;100284.16;110182;1263;22233;-59
2023/06/13 09:22:24;;;;;;;4.20;0.80;;;;;;;19.22;47.11;100280.02;110160;1264;23281;-59
2023/06/13 09:24:57;;;;;;;5.00;1.10;;;;;;;19.23;46.80;100279.29;110191;1265;22129;-58
2023/06/13 09:27:29;;;;;;;4.30;1.10;;;;;;;19.28;47.02;100279.98;110092;1262;23076;-59
2023/06/13 09:30:02;;;;;;;5.30;1.10;;;;;;;19.35;47.15;100279.21;110119;1271;22163;-59
2023/06/13 09:32:33;;;;;;;2.90;0.80;;;;;;;19.40;46.61;100276.83;110142;1271;22239;-58
2023/06/13 09:35:06;;;;;;;4.20;0.70;;;;;;;19.40;46.32;100277.51;110147;1271;22266;-58
2023/06/13 09:37:38;;;;;;;7.60;1.10;;;;;;;19.43;46.40;100277.25;110190;1265;22193;-58
2023/06/13 09:40:11;;;;;;;4.70;1.10;;;;;;;19.45;45.98;100279.83;110176;1272;22210;-58
2023/06/13 09:42:44;;;;;;;4.20;1.10;;;;;;;19.46;45.75;100276.83;110184;1278;22254;-59
2023/06/13 09:45:15;;;;;;;9.10;1.10;;;;;;;19.49;45.97;100270.91;110171;1271;22329;-58
2023/06/13 09:47:47;;;;;;;5.60;1.10;;;;;;;19.55;46.02;100271.48;110154;1265;22225;-59
2023/06/13 09:50:18;;;;;;;4.40;0.90;;;;;;;19.63;46.09;100270.33;110144;1265;22917;-57
2023/06/13 09:52:50;;;;;;;6.40;1.20;;;;;;;19.70;46.27;100268.09;110185;1271;22966;-59
2023/06/13 09:55:23;;;;;;;4.50;1.00;;;;;;;19.79;46.18;100267.46;110100;1271;22649;-58
2023/06/13 09:57:55;;;;;;;6.10;1.00;;;;;;;19.88;45.98;100266.83;110178;1271;23070;-58
2023/06/13 10:00:27;;;;;;;3.80;0.90;;;;;;;19.95;45.68;100261.09;110149;1265;22204;-56
2023/06/13 10:02:58;;;;;;;5.00;1.10;;;;;;;19.96;45.27;100262.77;110168;1264;22170;-58
2023/06/13 10:05:29;;;;;;;6.10;1.00;;;;;;;19.95;44.78;100260.45;110165;1264;22181;-58
2023/06/13 10:08:00;;;;;;;4.40;0.90;;;;;;;19.85;44.75;100268.93;110163;1271;22466;-59
2023/06/13 10:10:31;;;;;;;4.20;0.80;;;;;;;19.80;44.68;100263.36;110137;1264;22414;-57
2023/06/13 10:13:04;;;;;;;6.70;1.10;;;;;;;19.81;44.80;100267.41;110164;1270;22431;-59
2023/06/13 10:15:39;;;;;;;8.40;2.10;;;;;;;19.82;44.59;100268.29;110195;1272;22439;-58
2023/06/13 10:18:13;;;;;;;27.70;14.10;;;;;;;19.83;44.41;100270.87;110135;1265;22149;-58
2023/06/13 10:20:49;;;;;;;8.00;1.60;;;;;;;19.79;43.61;100267.83;110142;1262;22343;-58
2023/06/13 10:23:21;;;;;;;9.10;1.50;;;;;;;19.70;43.92;100263.53;110123;1270;22415;-57
2023/06/13 10:25:55;;;;;;;4.50;1.20;;;;;;;19.73;44.09;100263.91;110129;1267;22277;-59
2023/06/13 10:28:41;;;;;;;4.10;1.00;;;;;;;19.78;43.74;100261.08;110111;1270;22360;-58
2023/06/13 10:31:26;;;;;;;5.20;0.80;;;;;;;19.76;43.76;100256.64;110181;1264;22333;-57
2023/06/13 10:34:19;;;;;;;3.80;0.80;;;;;;;19.77;43.61;100252.95;110046;1271;22168;-59
2023/06/13 10:37:12;;;;;;;7.40;1.10;;;;;;;19.81;43.29;100250.00;110200;1258;22687;-58
2023/06/13 10:40:04;;;;;;;3.20;0.70;;;;;;;19.86;43.19;100253.46;110122;1264;22317;-59
2023/06/13 10:42:38;;;;;;;6.20;1.00;;;;;;;19.88;43.43;100255.02;110121;1271;22246;-58
2023/06/13 10:45:13;;;;;;;6.00;1.00;;;;;;;19.88;42.97;100251.79;110179;1264;22344;-59
2023/06/13 10:47:44;;;;;;;5.70;1.10;;;;;;;19.84;43.41;100245.61;110173;1271;22447;-59
2023/06/13 10:50:18;;;;;;;4.60;0.80;;;;;;;19.82;43.36;100242.87;110165;1268;22293;-59
2023/06/13 10:52:50;;;;;;;3.90;0.80;;;;;;;19.72;43.40;100244.20;110168;1267;22203;-58
2023/06/13 10:55:27;;;;;;;5.40;0.90;;;;;;;19.77;43.80;100244.42;110168;1270;22158;-58
2023/06/13 10:57:59;;;;;;;5.20;0.80;;;;;;;19.86;43.70;100250.07;110138;1271;22889;-59
2023/06/13 11:00:31;;;;;;;8.70;1.80;;;;;;;19.90;43.34;100253.61;110172;1273;22359;-58
2023/06/13 11:03:07;;;;;;;4.00;0.90;;;;;;;19.87;43.21;100253.98;110175;1271;22331;-59
2023/06/13 11:05:50;;;;;;;5.70;0.90;;;;;;;19.86;43.12;100247.08;110167;1265;22320;-58
2023/06/13 11:08:25;;;;;;;5.30;0.90;;;;;;;19.82;42.61;100247.05;110028;1273;22241;-58
2023/06/13 11:10:56;;;;;;;20.60;9.20;;;;;;;19.64;42.66;100245.08;110151;1265;22237;-65
2023/06/13 11:13:32;;;;;;;8.80;1.50;;;;;;;19.55;43.03;100246.48;110127;1271;22340;-58
2023/06/13 11:16:43;;;;;;;5.30;1.10;;;;;;;19.45;43.18;100238.91;110157;1271;23159;-58
2023/06/13 11:19:16;;;;;;;7.40;0.90;;;;;;;19.43;43.26;100237.65;110134;1264;22981;-58
2023/06/13 11:21:50;;;;;;;4.10;1.00;;;;;;;19.42;43.49;100239.85;110158;1260;23174;-58
2023/06/13 11:24:21;;;;;;;9.60;1.10;;;;;;;19.41;43.91;100235.94;110141;1271;22402;-59
2023/06/13 11:26:52;;;;;;;6.70;1.20;;;;;;;19.46;43.65;100230.77;110133;1267;22379;-57
2023/06/13 11:29:23;;;;;;;3.70;0.80;;;;;;;19.50;43.58;100231.25;110138;1268;22159;-56
2023/06/13 11:31:55;;;;;;;3.20;0.70;;;;;;;19.51;43.35;100236.14;110148;1265;22428;-57
2023/06/13 11:34:33;;;;;;;5.40;1.00;;;;;;;19.49;43.51;100231.16;110166;1271;22294;-58
2023/06/13 11:37:11;;;;;;;4.30;0.90;;;;;;;19.55;43.58;100227.06;110092;1273;22406;-55
2023/06/13 11:39:46;;;;;;;5.20;0.80;;;;;;;19.55;43.90;100220.20;110193;1264;22330;-56